Aérodrome :
LOGIN :

S'inscrire | Disclaimer

   EN    FR    IT 

 










Légende :    VFR   VFR Marginal   IFR   IFR Intensif   IFR Très Intensif
Visi : 
Plafond : 
>= 8 km
>= 3000ft
5 à 8 km
1000 à 3000 ft
1500m à 5 km
500 à 1000 ft
800 à 1500m
200 à 500 ft
< 800m
< 200 ft
Symboles :   Orages  Brouillard  Fortes neiges  Fortes précipitations  Vent > 20 kt
SIGMETs :   Divers  Orages  Givrage  Turbulence  Onde Orograph.  Cendres Volcan.






- Altitude de l'aérodrome : 12 ft
- Code IATA : BCN


LEBL - Barcelone

DERNIER METAR :
  • 270500Z 33009KT 9999 FEW018 09/06 Q1017 NOSIG

METARs EXPIRÉS :
  • 270430Z 32007KT 9999 FEW018 09/07 Q1017 NOSIG
  • 270400Z 30008KT 260V330 9999 FEW018 09/08 Q1017 NOSIG
  • 270330Z 23004KT 9999 FEW018 10/08 Q1018 NOSIG
  • 270300Z 20010KT 9999 FEW018 SCT035 11/07 Q1018 NOSIG
  • 270230Z 15010KT 120V180 9999 FEW018 BKN035 13/09 Q1018 NOSIG

TAF TAF LEBL
Valide du 27 à 00h jusqu'au 28 à 00h UTC


262300Z 2700/2724 14010KT 9999 FEW020 TX18/2713Z TN07/2706Z
BECMG 2701/2704 31007KT
BECMG 2709/2711 24018KT
PROB40
TEMPO 2712/2721 23020G30KT
BECMG 2718/2721 32010KT



MET'MAP, la Météo Aéronautique d'un coup d'oeil ! - Copyright ORBIFLY Décembre 2007 - Disclaimer

ORBIFLY MET'MAP TEAM :

Programmation & Développement : Alexandra Zaïnal
Sur une idée originale de : Baudouin d'Aumeries
Assistance à la programmation : Marc-Olivier Méhu
Soutien technique & logistique : Manuel Goepfert

Contact : metmap@orbifly.com




SOURCES & CREDITS :

   NOAA